This is the latest recevied weather packets stored in our database for station/object DG2GGP-11. If no packets are shown the sender has not sent any weather packets the latest 10 day(s).
| Time | Temp. | Humidity | Pressure | Rain* | Wind** | Luminosity | Snow |
|---|---|---|---|---|---|---|---|
| 1777501757 | 6.11° C | 62% | 1023.2 hPa | 0 mm | - | 0 W/m² | - |
| 1777501157 | 6.11° C | 63% | 1023 hPa | 0 mm | - | 0 W/m² | - |
| 1777500557 | 6.11° C | 62% | 1023.1 hPa | 0 mm | - | 0 W/m² | - |
| 1777499957 | 6.11° C | 65% | 1023.1 hPa | 0 mm | - | 0 W/m² | - |
| 1777499357 | 6.11° C | 66% | 1023.1 hPa | 0 mm | - | 0 W/m² | - |
| 1777498757 | 6.11° C | 66% | 1023.1 hPa | 0 mm | - | 0 W/m² | - |
| 1777498157 | 6.11° C | 67% | 1023 hPa | 0 mm | - | 0 W/m² | - |
| 1777497557 | 6.11° C | 66% | 1022.9 hPa | 0 mm | - | 0 W/m² | - |
| 1777496957 | 6.67° C | 64% | 1022.8 hPa | 0 mm | - | 0 W/m² | - |
| 1777496357 | 7.22° C | 63% | 1022.8 hPa | 0 mm | - | 0 W/m² | - |
| 1777495757 | 7.22° C | 62% | 1022.7 hPa | 0 mm | - | 0 W/m² | - |
| 1777495157 | 7.78° C | 60% | 1022.7 hPa | 0 mm | - | 0 W/m² | - |
| 1777494557 | 8.33° C | 59% | 1022.6 hPa | 0 mm | - | 0 W/m² | - |
| 1777493957 | 8.89° C | 57% | 1022.5 hPa | 0 mm | - | 0 W/m² | - |
| 1777493357 | 9.44° C | 53% | 1022.4 hPa | 0 mm | - | 0 W/m² | - |
| 1777492757 | 9.44° C | 51% | 1022.2 hPa | 0 mm | - | 0 W/m² | - |
| 1777492157 | 10° C | 50% | 1022.1 hPa | 0 mm | - | 0 W/m² | - |
| 1777491557 | 10.56° C | 49% | 1022 hPa | 0 mm | - | 0 W/m² | - |
| 1777490957 | 11.11° C | 48% | 1021.8 hPa | 0 mm | - | 0 W/m² | - |
| 1777490357 | 11.11° C | 47% | 1021.6 hPa | 0 mm | - | 0 W/m² | - |
| 1777489757 | 12.22° C | 45% | 1021.5 hPa | 0 mm | - | 0 W/m² | - |
| 1777489157 | 12.22° C | 44% | 1021.4 hPa | 0 mm | - | 0 W/m² | - |
| 1777488557 | 12.78° C | 43% | 1021.2 hPa | 0 mm | - | 0 W/m² | - |
| 1777487957 | 13.33° C | 43% | 1021.1 hPa | 0 mm | - | 0 W/m² | - |
| 1777487357 | 13.89° C | 42% | 1021 hPa | 0 mm | - | 0 W/m² | - |
* Rain latest hour (hover to see other rain measurements)
** Current wind speed in m/s (hover to see current wind gust speed)